Portada
METAR-TAF:

METAR-TAF

Aeropuertos :

Aeropuerto de Badajoz

Badajoz, España

latitud: 38-53N, longitud: 006-49W, altitud: 185 m

Observación

El informe se hizo hace 6 horas y 14 minutos, a las 19:00 UTC
Viento 14 kt del oeste
Temperatura 29°C
Humedad 40%
Presión 1014 hPa
Visibilidad 10 km o más
sin nubes por debajo de 1500 m y sin presencia de cumulonimbus.

METAR: LEBZ 141900Z 28014KT CAVOK 29/14 Q1014

Hora: 03:14 (01:14 UTC)

Pronóstico

El informe se hizo hace 5 horas y 14 minutos, a las 20:00 UTC
Pronóstico válido del 14 a las 21 UTC al 15 a las 21 UTC
Viento 8 kt del oeste-noroeste
Visibilidad 10 km o más
sin nubes por debajo de 1500 m y sin presencia de cumulonimbus.

TAF: LEBZ 142000Z 1421/1521 29008KT CAVOK TX33/1515Z TN13/1505Z

Observaciones y pronósticos meteorológicos de más de 4000 aeropuertos (mensajes METAR y TAF).

Los puntos amarillos y rojos representan las estaciones disponibles.

Ponga el ratón en el punto deseado para ver el nombre de la estación.

Haga clic para ver las observaciones y los pronósticos meteorológicos.

Para cambiar el mapa : haga clic en los botones verdes con una cruz de color negro para hacer un zoom, en el botón verde con un guión para alejar o en las flechas verdes para mapas adyacentes.


METAR-TAF: